JFA32D LFPB-EGBO
Flight info
| Callsign | JFA32D |
|---|---|
| Flight time | 1h 17m |
| Altitude | 20000 |
| Route | OPALE UT421 KUNAV T421 BIG T420 BUZAD L10 HON |
| Aircraft | PC12/L-SDFGRWY/S |
Departure
| Time | 2026-05-07 14:14 |
|---|---|
| Airport | Paris-Le Bourget International Airport (LFPB) |
Arrival
| Time | 2026-05-07 15:31 |
|---|---|
| Airport | Wolverhampton Halfpenny Green Airport (EGBO) |
| Time | Latitude | Longitude | Altitude | Speed | Heading |
|---|---|---|---|---|---|
| 2026-05-07 13:56 | 48.96293 | 2.44777 | 168 ft | 0 kts | 167° |
| 2026-05-07 14:08 | 48.96292 | 2.44771 | 168 ft | 2 kts | 344° |
| 2026-05-07 14:08 | 48.96329 | 2.44712 | 169 ft | 15 kts | 279° |
| 2026-05-07 14:09 | 48.96335 | 2.44480 | 169 ft | 25 kts | 231° |
| 2026-05-07 14:09 | 48.96258 | 2.44286 | 167 ft | 21 kts | 257° |
| 2026-05-07 14:09 | 48.96216 | 2.44016 | 166 ft | 31 kts | 259° |
| 2026-05-07 14:09 | 48.96264 | 2.43714 | 168 ft | 26 kts | 287° |
| 2026-05-07 14:10 | 48.96231 | 2.43604 | 169 ft | 12 kts | 37° |
| 2026-05-07 14:10 | 48.96306 | 2.43617 | 167 ft | 4 kts | 259° |
| 2026-05-07 14:10 | 48.96288 | 2.43518 | 166 ft | 19 kts | 257° |
| 2026-05-07 14:10 | 48.96134 | 2.43182 | 157 ft | 44 kts | 229° |
| 2026-05-07 14:11 | 48.96110 | 2.42837 | 150 ft | 32 kts | 293° |
| 2026-05-07 14:11 | 48.96240 | 2.42587 | 158 ft | 27 kts | 309° |
| 2026-05-07 14:11 | 48.96263 | 2.42281 | 156 ft | 22 kts | 266° |
| 2026-05-07 14:11 | 48.96262 | 2.42250 | 156 ft | 0 kts | 268° |
| 2026-05-07 14:12 | 48.96262 | 2.42234 | 156 ft | 8 kts | 268° |
| 2026-05-07 14:12 | 48.96283 | 2.42072 | 156 ft | 20 kts | 330° |
| 2026-05-07 14:13 | 48.96375 | 2.42145 | 153 ft | 15 kts | 92° |
| 2026-05-07 14:13 | 48.96378 | 2.42195 | 154 ft | 0 kts | 86° |
| 2026-05-07 14:13 | 48.96385 | 2.42305 | 157 ft | 38 kts | 84° |
| 2026-05-07 14:13 | 48.96425 | 2.43049 | 163 ft | 99 kts | 85° |
| 2026-05-07 14:14 | 48.96483 | 2.44215 | 387 ft | 120 kts | 84° |
| 2026-05-07 14:14 | 48.96538 | 2.45572 | 950 ft | 134 kts | 84° |
| 2026-05-07 14:14 | 48.96624 | 2.47017 | 1686 ft | 139 kts | 83° |
| 2026-05-07 14:14 | 48.96718 | 2.48535 | 2338 ft | 148 kts | 84° |
| 2026-05-07 14:15 | 48.96809 | 2.50151 | 3008 ft | 158 kts | 84° |
| 2026-05-07 14:15 | 48.96902 | 2.51861 | 3685 ft | 167 kts | 86° |
| 2026-05-07 14:15 | 48.96815 | 2.53685 | 4364 ft | 178 kts | 97° |
| 2026-05-07 14:15 | 48.96674 | 2.55576 | 5137 ft | 181 kts | 96° |
| 2026-05-07 14:16 | 48.96544 | 2.57500 | 5910 ft | 184 kts | 96° |
| 2026-05-07 14:16 | 48.96411 | 2.59476 | 6591 ft | 192 kts | 96° |
| 2026-05-07 14:16 | 48.96270 | 2.61535 | 7215 ft | 199 kts | 96° |
| 2026-05-07 14:16 | 48.96128 | 2.63626 | 7841 ft | 202 kts | 97° |
| 2026-05-07 14:17 | 48.95981 | 2.65769 | 8484 ft | 206 kts | 96° |
| 2026-05-07 14:17 | 48.95831 | 2.67958 | 9141 ft | 209 kts | 96° |
| 2026-05-07 14:17 | 48.95680 | 2.70151 | 9806 ft | 210 kts | 97° |
| 2026-05-07 14:17 | 48.95527 | 2.72388 | 10423 ft | 214 kts | 97° |
| 2026-05-07 14:18 | 48.95369 | 2.74661 | 11032 ft | 218 kts | 97° |
| 2026-05-07 14:18 | 48.95209 | 2.76964 | 11652 ft | 220 kts | 96° |
| 2026-05-07 14:18 | 48.94996 | 2.79277 | 12281 ft | 222 kts | 100° |
| 2026-05-07 14:18 | 48.94825 | 2.81619 | 12925 ft | 224 kts | 95° |
| 2026-05-07 14:19 | 48.94702 | 2.83984 | 13584 ft | 225 kts | 96° |
| 2026-05-07 14:19 | 48.94533 | 2.86363 | 14208 ft | 227 kts | 97° |
| 2026-05-07 14:19 | 48.94348 | 2.88765 | 14811 ft | 230 kts | 97° |
| 2026-05-07 14:19 | 48.94202 | 2.91192 | 15421 ft | 232 kts | 89° |
| 2026-05-07 14:20 | 48.94671 | 2.93516 | 16031 ft | 234 kts | 55° |
| 2026-05-07 14:20 | 48.95906 | 2.95070 | 16667 ft | 232 kts | 20° |
| 2026-05-07 14:20 | 48.97470 | 2.95377 | 17321 ft | 227 kts | 353° |
| 2026-05-07 14:20 | 48.99016 | 2.95167 | 17997 ft | 219 kts | 351° |
| 2026-05-07 14:21 | 49.00538 | 2.94983 | 18624 ft | 220 kts | 353° |
| 2026-05-07 14:21 | 49.02068 | 2.94844 | 19219 ft | 221 kts | 353° |
| 2026-05-07 14:21 | 49.03614 | 2.94708 | 19778 ft | 226 kts | 353° |
| 2026-05-07 14:21 | 49.05245 | 2.94556 | 20048 ft | 244 kts | 353° |
| 2026-05-07 14:22 | 49.07014 | 2.94391 | 20064 ft | 265 kts | 354° |
| 2026-05-07 14:22 | 49.08899 | 2.94220 | 20058 ft | 277 kts | 354° |
| 2026-05-07 14:22 | 49.10850 | 2.94043 | 20064 ft | 284 kts | 354° |
| 2026-05-07 14:22 | 49.12795 | 2.93555 | 20062 ft | 284 kts | 340° |
| 2026-05-07 14:23 | 49.14591 | 2.92330 | 20057 ft | 284 kts | 326° |
| 2026-05-07 14:23 | 49.16143 | 2.90491 | 20064 ft | 282 kts | 316° |
| 2026-05-07 14:23 | 49.17611 | 2.88488 | 20061 ft | 283 kts | 316° |
| 2026-05-07 14:23 | 49.19090 | 2.86491 | 20058 ft | 284 kts | 316° |
| 2026-05-07 14:24 | 49.20553 | 2.84513 | 20058 ft | 284 kts | 316° |
| 2026-05-07 14:24 | 49.22034 | 2.82504 | 20059 ft | 284 kts | 316° |
| 2026-05-07 14:24 | 49.23512 | 2.80497 | 20060 ft | 285 kts | 316° |
| 2026-05-07 14:24 | 49.24993 | 2.78483 | 20056 ft | 285 kts | 316° |
| 2026-05-07 14:25 | 49.26474 | 2.76469 | 20056 ft | 285 kts | 316° |
| 2026-05-07 14:25 | 49.27953 | 2.74458 | 20056 ft | 285 kts | 316° |
| 2026-05-07 14:25 | 49.29434 | 2.72443 | 20057 ft | 285 kts | 316° |
| 2026-05-07 14:25 | 49.30913 | 2.70425 | 20056 ft | 285 kts | 316° |
| 2026-05-07 14:26 | 49.32393 | 2.68406 | 20056 ft | 285 kts | 316° |
| 2026-05-07 14:26 | 49.33871 | 2.66387 | 20056 ft | 284 kts | 316° |
| 2026-05-07 14:26 | 49.35349 | 2.64370 | 20063 ft | 284 kts | 316° |
| 2026-05-07 14:26 | 49.36825 | 2.62350 | 20062 ft | 284 kts | 316° |
| 2026-05-07 14:27 | 49.38301 | 2.60331 | 20064 ft | 284 kts | 316° |
| 2026-05-07 14:27 | 49.39775 | 2.58311 | 20066 ft | 284 kts | 316° |
| 2026-05-07 14:27 | 49.41251 | 2.56287 | 20066 ft | 284 kts | 316° |
| 2026-05-07 14:27 | 49.42723 | 2.54267 | 20067 ft | 284 kts | 316° |
| 2026-05-07 14:28 | 49.44198 | 2.52241 | 20070 ft | 284 kts | 316° |
| 2026-05-07 14:28 | 49.45673 | 2.50214 | 20072 ft | 284 kts | 316° |
| 2026-05-07 14:28 | 49.47147 | 2.48186 | 20071 ft | 284 kts | 316° |
| 2026-05-07 14:28 | 49.48621 | 2.46157 | 20076 ft | 284 kts | 316° |
| 2026-05-07 14:29 | 49.50094 | 2.44127 | 20076 ft | 285 kts | 316° |
| 2026-05-07 14:29 | 49.51568 | 2.42096 | 20077 ft | 284 kts | 316° |
| 2026-05-07 14:29 | 49.53039 | 2.40064 | 20077 ft | 284 kts | 316° |
| 2026-05-07 14:29 | 49.54509 | 2.38031 | 20080 ft | 284 kts | 316° |
| 2026-05-07 14:30 | 49.55980 | 2.36001 | 20079 ft | 284 kts | 316° |
| 2026-05-07 14:30 | 49.57455 | 2.33959 | 20077 ft | 284 kts | 316° |
| 2026-05-07 14:30 | 49.58925 | 2.31922 | 20080 ft | 284 kts | 316° |
| 2026-05-07 14:30 | 49.60393 | 2.29887 | 20081 ft | 284 kts | 316° |
| 2026-05-07 14:31 | 49.61862 | 2.27849 | 20079 ft | 284 kts | 316° |
| 2026-05-07 14:31 | 49.63332 | 2.25809 | 20081 ft | 284 kts | 316° |
| 2026-05-07 14:31 | 49.64801 | 2.23768 | 20081 ft | 284 kts | 315° |
| 2026-05-07 14:31 | 49.66251 | 2.21751 | 20083 ft | 284 kts | 315° |
| 2026-05-07 14:32 | 49.67716 | 2.19710 | 20082 ft | 284 kts | 315° |
| 2026-05-07 14:32 | 49.69184 | 2.17665 | 20080 ft | 284 kts | 315° |
| 2026-05-07 14:32 | 49.70652 | 2.15619 | 20078 ft | 284 kts | 315° |
| 2026-05-07 14:32 | 49.72119 | 2.13571 | 20079 ft | 284 kts | 316° |
| 2026-05-07 14:33 | 49.73585 | 2.11523 | 20076 ft | 284 kts | 315° |
| 2026-05-07 14:33 | 49.75053 | 2.09471 | 20078 ft | 284 kts | 315° |
| 2026-05-07 14:33 | 49.76520 | 2.07418 | 20076 ft | 284 kts | 315° |
| 2026-05-07 14:33 | 49.77988 | 2.05363 | 20069 ft | 285 kts | 315° |
| 2026-05-07 14:34 | 49.79454 | 2.03308 | 20072 ft | 284 kts | 315° |
| 2026-05-07 14:34 | 49.80920 | 2.01252 | 20074 ft | 284 kts | 315° |
| 2026-05-07 14:34 | 49.82384 | 1.99197 | 20075 ft | 284 kts | 315° |
| 2026-05-07 14:34 | 49.83848 | 1.97139 | 20073 ft | 284 kts | 315° |
| 2026-05-07 14:35 | 49.85314 | 1.95078 | 20069 ft | 285 kts | 315° |
| 2026-05-07 14:35 | 49.86782 | 1.93011 | 20067 ft | 284 kts | 315° |
| 2026-05-07 14:35 | 49.88246 | 1.90948 | 20071 ft | 284 kts | 315° |
| 2026-05-07 14:35 | 49.89711 | 1.88885 | 20070 ft | 284 kts | 315° |
| 2026-05-07 14:36 | 49.91242 | 1.86943 | 20070 ft | 285 kts | 319° |
| 2026-05-07 14:36 | 49.92800 | 1.85044 | 20072 ft | 285 kts | 319° |
| 2026-05-07 14:36 | 49.94354 | 1.83133 | 20073 ft | 285 kts | 319° |
| 2026-05-07 14:36 | 49.95906 | 1.81216 | 20072 ft | 285 kts | 319° |
| 2026-05-07 14:37 | 49.97438 | 1.79325 | 20074 ft | 285 kts | 319° |
| 2026-05-07 14:37 | 50.00546 | 1.75493 | 20073 ft | 285 kts | 319° |
| 2026-05-07 14:37 | 50.02099 | 1.73574 | 20072 ft | 285 kts | 319° |
| 2026-05-07 14:38 | 50.03651 | 1.71654 | 20076 ft | 285 kts | 319° |
| 2026-05-07 14:38 | 50.05205 | 1.69731 | 20078 ft | 285 kts | 319° |
| 2026-05-07 14:38 | 50.06756 | 1.67810 | 20076 ft | 285 kts | 319° |
| 2026-05-07 14:38 | 50.08257 | 1.65807 | 20074 ft | 284 kts | 316° |
| 2026-05-07 14:39 | 50.09748 | 1.63784 | 20076 ft | 284 kts | 317° |
| 2026-05-07 14:39 | 50.11245 | 1.61769 | 20078 ft | 285 kts | 317° |
| 2026-05-07 14:39 | 50.12739 | 1.59745 | 20078 ft | 285 kts | 316° |
| 2026-05-07 14:39 | 50.14232 | 1.57715 | 20076 ft | 285 kts | 316° |
| 2026-05-07 14:40 | 50.15729 | 1.55680 | 20075 ft | 285 kts | 316° |
| 2026-05-07 14:40 | 50.17225 | 1.53648 | 20079 ft | 285 kts | 316° |
| 2026-05-07 14:40 | 50.18719 | 1.51613 | 20081 ft | 285 kts | 316° |
| 2026-05-07 14:40 | 50.20214 | 1.49577 | 20079 ft | 285 kts | 316° |
| 2026-05-07 14:41 | 50.21705 | 1.47545 | 20079 ft | 285 kts | 316° |
| 2026-05-07 14:41 | 50.23198 | 1.45507 | 20082 ft | 285 kts | 316° |
| 2026-05-07 14:41 | 50.24687 | 1.43474 | 20083 ft | 285 kts | 316° |
| 2026-05-07 14:41 | 50.26178 | 1.41436 | 20083 ft | 284 kts | 316° |
| 2026-05-07 14:42 | 50.27666 | 1.39401 | 20083 ft | 285 kts | 316° |
| 2026-05-07 14:42 | 50.29155 | 1.37362 | 20082 ft | 284 kts | 316° |
| 2026-05-07 14:42 | 50.30643 | 1.35322 | 20080 ft | 284 kts | 316° |
| 2026-05-07 14:42 | 50.32133 | 1.33279 | 20080 ft | 285 kts | 316° |
| 2026-05-07 14:43 | 50.33619 | 1.31238 | 20081 ft | 285 kts | 316° |
| 2026-05-07 14:43 | 50.35108 | 1.29192 | 20083 ft | 285 kts | 316° |
| 2026-05-07 14:43 | 50.36594 | 1.27150 | 20082 ft | 284 kts | 316° |
| 2026-05-07 14:43 | 50.38080 | 1.25103 | 20083 ft | 285 kts | 316° |
| 2026-05-07 14:44 | 50.39567 | 1.23056 | 20082 ft | 285 kts | 316° |
| 2026-05-07 14:44 | 50.41053 | 1.21007 | 20083 ft | 285 kts | 316° |
| 2026-05-07 14:44 | 50.42539 | 1.18956 | 20083 ft | 285 kts | 316° |
| 2026-05-07 14:44 | 50.44025 | 1.16904 | 20081 ft | 285 kts | 316° |
| 2026-05-07 14:45 | 50.45510 | 1.14850 | 20082 ft | 285 kts | 316° |
| 2026-05-07 14:45 | 50.46995 | 1.12796 | 20082 ft | 285 kts | 316° |
| 2026-05-07 14:45 | 50.48480 | 1.10740 | 20081 ft | 285 kts | 316° |
| 2026-05-07 14:45 | 50.49964 | 1.08683 | 20084 ft | 285 kts | 316° |
| 2026-05-07 14:46 | 50.51449 | 1.06628 | 20083 ft | 284 kts | 317° |
| 2026-05-07 14:46 | 50.52979 | 1.04725 | 20082 ft | 285 kts | 319° |
| 2026-05-07 14:46 | 50.54543 | 1.02803 | 20081 ft | 285 kts | 319° |
| 2026-05-07 14:46 | 50.56099 | 1.00874 | 20082 ft | 285 kts | 319° |
| 2026-05-07 14:47 | 50.57659 | 0.98939 | 20082 ft | 285 kts | 319° |
| 2026-05-07 14:47 | 50.59217 | 0.97010 | 20082 ft | 285 kts | 319° |
| 2026-05-07 14:47 | 50.60778 | 0.95075 | 20083 ft | 285 kts | 319° |
| 2026-05-07 14:47 | 50.62335 | 0.93143 | 20084 ft | 285 kts | 319° |
| 2026-05-07 14:48 | 50.63894 | 0.91207 | 20082 ft | 285 kts | 319° |
| 2026-05-07 14:48 | 50.65452 | 0.89270 | 20084 ft | 285 kts | 319° |
| 2026-05-07 14:48 | 50.67010 | 0.87332 | 20084 ft | 285 kts | 319° |
| 2026-05-07 14:48 | 50.68568 | 0.85392 | 20086 ft | 285 kts | 319° |
| 2026-05-07 14:49 | 50.70125 | 0.83451 | 20084 ft | 285 kts | 319° |
| 2026-05-07 14:49 | 50.71682 | 0.81508 | 20082 ft | 285 kts | 319° |
| 2026-05-07 14:49 | 50.73239 | 0.79565 | 20085 ft | 285 kts | 319° |
| 2026-05-07 14:49 | 50.74795 | 0.77620 | 20084 ft | 285 kts | 319° |
| 2026-05-07 14:50 | 50.76351 | 0.75674 | 20081 ft | 285 kts | 319° |
| 2026-05-07 14:50 | 50.77906 | 0.73728 | 20082 ft | 285 kts | 319° |
| 2026-05-07 14:50 | 50.78935 | 0.72439 | 20082 ft | 285 kts | 319° |
| 2026-05-07 14:50 | 50.80490 | 0.70490 | 20081 ft | 285 kts | 319° |
| 2026-05-07 14:51 | 50.82045 | 0.68539 | 20082 ft | 285 kts | 319° |
| 2026-05-07 14:51 | 50.83599 | 0.66587 | 20081 ft | 285 kts | 319° |
| 2026-05-07 14:51 | 50.85153 | 0.64634 | 20082 ft | 285 kts | 319° |
| 2026-05-07 14:51 | 50.86707 | 0.62680 | 20084 ft | 285 kts | 319° |
| 2026-05-07 14:52 | 50.88264 | 0.60719 | 20078 ft | 286 kts | 319° |
| 2026-05-07 14:52 | 50.89818 | 0.58760 | 20077 ft | 286 kts | 319° |
| 2026-05-07 14:52 | 50.91372 | 0.56800 | 20076 ft | 286 kts | 319° |
| 2026-05-07 14:52 | 50.92927 | 0.54838 | 20075 ft | 286 kts | 319° |
| 2026-05-07 14:53 | 50.94478 | 0.52878 | 19983 ft | 285 kts | 319° |
| 2026-05-07 14:53 | 50.96031 | 0.50911 | 19968 ft | 285 kts | 319° |
| 2026-05-07 14:53 | 50.97582 | 0.48943 | 19953 ft | 285 kts | 319° |
| 2026-05-07 14:53 | 50.99130 | 0.46979 | 19944 ft | 285 kts | 319° |
| 2026-05-07 14:54 | 51.00682 | 0.45007 | 19930 ft | 285 kts | 319° |
| 2026-05-07 14:54 | 51.02232 | 0.43037 | 19916 ft | 285 kts | 319° |
| 2026-05-07 14:54 | 51.03782 | 0.41065 | 19903 ft | 286 kts | 319° |
| 2026-05-07 14:54 | 51.05333 | 0.39091 | 19894 ft | 286 kts | 319° |
| 2026-05-07 14:55 | 51.06883 | 0.37115 | 19883 ft | 286 kts | 319° |
| 2026-05-07 14:55 | 51.08434 | 0.35137 | 19879 ft | 285 kts | 319° |
| 2026-05-07 14:55 | 51.09984 | 0.33160 | 19873 ft | 286 kts | 319° |
| 2026-05-07 14:55 | 51.11533 | 0.31184 | 19871 ft | 286 kts | 319° |
| 2026-05-07 14:56 | 51.13084 | 0.29203 | 19870 ft | 286 kts | 319° |
| 2026-05-07 14:56 | 51.14635 | 0.27218 | 19876 ft | 286 kts | 319° |
| 2026-05-07 14:56 | 51.16186 | 0.25232 | 19880 ft | 286 kts | 319° |
| 2026-05-07 14:56 | 51.17739 | 0.23243 | 19890 ft | 286 kts | 319° |
| 2026-05-07 14:57 | 51.19290 | 0.21255 | 19901 ft | 286 kts | 319° |
| 2026-05-07 14:57 | 51.20841 | 0.19264 | 19907 ft | 286 kts | 319° |
| 2026-05-07 14:57 | 51.22391 | 0.17272 | 20083 ft | 286 kts | 319° |
| 2026-05-07 14:57 | 51.23941 | 0.15279 | 20083 ft | 286 kts | 319° |
| 2026-05-07 14:58 | 51.25493 | 0.13283 | 20083 ft | 286 kts | 319° |
| 2026-05-07 14:58 | 51.27023 | 0.11312 | 20084 ft | 286 kts | 319° |
| 2026-05-07 14:58 | 51.28572 | 0.09316 | 20086 ft | 286 kts | 319° |
| 2026-05-07 14:58 | 51.30126 | 0.07311 | 20087 ft | 287 kts | 319° |
| 2026-05-07 14:59 | 51.31674 | 0.05310 | 20085 ft | 286 kts | 318° |
| 2026-05-07 14:59 | 51.33244 | 0.03344 | 20083 ft | 287 kts | 323° |
| 2026-05-07 14:59 | 51.34962 | 0.01710 | 20081 ft | 288 kts | 327° |
| 2026-05-07 14:59 | 51.36690 | 0.00088 | 20084 ft | 288 kts | 327° |
| 2026-05-07 15:00 | 51.38412 | -0.01554 | 20085 ft | 288 kts | 326° |
| 2026-05-07 15:00 | 51.40136 | -0.03195 | 20085 ft | 288 kts | 327° |
| 2026-05-07 15:00 | 51.41860 | -0.04827 | 20086 ft | 288 kts | 327° |
| 2026-05-07 15:00 | 51.43589 | -0.06467 | 20083 ft | 288 kts | 327° |
| 2026-05-07 15:01 | 51.45314 | -0.08107 | 20084 ft | 288 kts | 327° |
| 2026-05-07 15:01 | 51.47040 | -0.09749 | 20083 ft | 288 kts | 327° |
| 2026-05-07 15:01 | 51.48762 | -0.11391 | 20081 ft | 288 kts | 327° |
| 2026-05-07 15:01 | 51.50489 | -0.13037 | 20079 ft | 289 kts | 327° |
| 2026-05-07 15:02 | 51.52218 | -0.14686 | 20077 ft | 289 kts | 327° |
| 2026-05-07 15:02 | 51.53945 | -0.16335 | 20072 ft | 289 kts | 327° |
| 2026-05-07 15:02 | 51.55673 | -0.17986 | 20054 ft | 289 kts | 327° |
| 2026-05-07 15:02 | 51.57397 | -0.19636 | 20051 ft | 289 kts | 327° |
| 2026-05-07 15:03 | 51.59125 | -0.21289 | 20081 ft | 289 kts | 327° |
| 2026-05-07 15:03 | 51.60852 | -0.22944 | 20083 ft | 289 kts | 327° |
| 2026-05-07 15:03 | 51.62581 | -0.24602 | 20082 ft | 289 kts | 327° |
| 2026-05-07 15:03 | 51.64308 | -0.26262 | 20085 ft | 290 kts | 327° |
| 2026-05-07 15:04 | 51.66038 | -0.27924 | 20083 ft | 290 kts | 327° |
| 2026-05-07 15:04 | 51.67769 | -0.29588 | 20086 ft | 290 kts | 327° |
| 2026-05-07 15:04 | 51.69499 | -0.31253 | 20087 ft | 290 kts | 327° |
| 2026-05-07 15:04 | 51.71228 | -0.32920 | 20082 ft | 290 kts | 327° |
| 2026-05-07 15:05 | 51.72956 | -0.34588 | 20083 ft | 289 kts | 327° |
| 2026-05-07 15:05 | 51.74684 | -0.36256 | 20086 ft | 290 kts | 327° |
| 2026-05-07 15:05 | 51.76412 | -0.37925 | 20086 ft | 290 kts | 327° |
| 2026-05-07 15:05 | 51.78142 | -0.39599 | 20059 ft | 290 kts | 327° |
| 2026-05-07 15:06 | 51.79872 | -0.41275 | 20059 ft | 290 kts | 327° |
| 2026-05-07 15:06 | 51.81603 | -0.42951 | 20057 ft | 290 kts | 327° |
| 2026-05-07 15:06 | 51.83309 | -0.44605 | 20059 ft | 290 kts | 327° |
| 2026-05-07 15:06 | 51.85062 | -0.46306 | 20058 ft | 290 kts | 326° |
| 2026-05-07 15:07 | 51.86767 | -0.47964 | 20060 ft | 290 kts | 326° |
| 2026-05-07 15:07 | 51.88494 | -0.49643 | 20057 ft | 290 kts | 327° |
| 2026-05-07 15:07 | 51.90223 | -0.51325 | 20057 ft | 290 kts | 326° |
| 2026-05-07 15:07 | 51.91951 | -0.53009 | 20057 ft | 290 kts | 326° |
| 2026-05-07 15:08 | 51.93638 | -0.54782 | 20053 ft | 288 kts | 319° |
| 2026-05-07 15:08 | 51.95022 | -0.57098 | 20048 ft | 285 kts | 305° |
| 2026-05-07 15:08 | 51.96151 | -0.59736 | 20054 ft | 285 kts | 302° |
| 2026-05-07 15:08 | 51.97276 | -0.62375 | 20056 ft | 285 kts | 302° |
| 2026-05-07 15:09 | 51.98407 | -0.65016 | 20056 ft | 285 kts | 302° |
| 2026-05-07 15:09 | 51.99534 | -0.67660 | 20056 ft | 285 kts | 302° |
| 2026-05-07 15:09 | 52.00660 | -0.70307 | 20060 ft | 285 kts | 302° |
| 2026-05-07 15:09 | 52.01785 | -0.72956 | 20056 ft | 285 kts | 302° |
| 2026-05-07 15:10 | 52.02911 | -0.75604 | 20059 ft | 285 kts | 302° |
| 2026-05-07 15:10 | 52.04038 | -0.78253 | 20060 ft | 285 kts | 302° |
| 2026-05-07 15:10 | 52.05163 | -0.80904 | 20054 ft | 285 kts | 302° |
| 2026-05-07 15:10 | 52.06288 | -0.83556 | 20057 ft | 285 kts | 302° |
| 2026-05-07 15:11 | 52.07421 | -0.86235 | 19825 ft | 290 kts | 302° |
| 2026-05-07 15:11 | 52.08551 | -0.88901 | 19465 ft | 283 kts | 302° |
| 2026-05-07 15:11 | 52.09663 | -0.91530 | 19096 ft | 282 kts | 302° |
| 2026-05-07 15:11 | 52.10778 | -0.94174 | 18725 ft | 286 kts | 302° |
| 2026-05-07 15:12 | 52.11904 | -0.96844 | 18347 ft | 285 kts | 302° |
| 2026-05-07 15:12 | 52.13038 | -0.99533 | 17935 ft | 286 kts | 302° |
| 2026-05-07 15:12 | 52.14134 | -1.02132 | 17573 ft | 277 kts | 302° |
| 2026-05-07 15:12 | 52.15227 | -1.04736 | 17216 ft | 283 kts | 302° |
| 2026-05-07 15:13 | 52.16354 | -1.07424 | 16839 ft | 289 kts | 302° |
| 2026-05-07 15:13 | 52.17487 | -1.10119 | 16460 ft | 288 kts | 302° |
| 2026-05-07 15:13 | 52.18524 | -1.12898 | 16086 ft | 287 kts | 295° |
| 2026-05-07 15:13 | 52.19442 | -1.15776 | 15717 ft | 284 kts | 295° |
| 2026-05-07 15:14 | 52.20322 | -1.18498 | 15342 ft | 250 kts | 295° |
| 2026-05-07 15:14 | 52.21099 | -1.20880 | 15021 ft | 236 kts | 295° |
| 2026-05-07 15:14 | 52.21833 | -1.23159 | 14725 ft | 228 kts | 295° |
| 2026-05-07 15:14 | 52.22567 | -1.25442 | 14434 ft | 227 kts | 295° |
| 2026-05-07 15:15 | 52.23301 | -1.27716 | 14140 ft | 227 kts | 295° |
| 2026-05-07 15:15 | 52.24035 | -1.29992 | 13840 ft | 226 kts | 295° |
| 2026-05-07 15:15 | 52.24766 | -1.32262 | 13521 ft | 225 kts | 295° |
| 2026-05-07 15:15 | 52.25493 | -1.34521 | 13226 ft | 224 kts | 294° |
| 2026-05-07 15:16 | 52.26214 | -1.36766 | 12929 ft | 223 kts | 295° |
| 2026-05-07 15:16 | 52.26932 | -1.39001 | 12634 ft | 222 kts | 294° |
| 2026-05-07 15:16 | 52.27646 | -1.41225 | 12334 ft | 221 kts | 294° |
| 2026-05-07 15:16 | 52.28358 | -1.43446 | 12052 ft | 220 kts | 294° |
| 2026-05-07 15:17 | 52.29066 | -1.45659 | 11762 ft | 219 kts | 294° |
| 2026-05-07 15:17 | 52.29772 | -1.47865 | 11469 ft | 219 kts | 294° |
| 2026-05-07 15:17 | 52.30470 | -1.50045 | 11184 ft | 215 kts | 294° |
| 2026-05-07 15:17 | 52.31158 | -1.52200 | 10895 ft | 213 kts | 294° |
| 2026-05-07 15:18 | 52.31841 | -1.54341 | 10609 ft | 212 kts | 294° |
| 2026-05-07 15:18 | 52.32520 | -1.56473 | 10301 ft | 211 kts | 294° |
| 2026-05-07 15:18 | 52.33199 | -1.58604 | 10016 ft | 211 kts | 295° |
| 2026-05-07 15:18 | 52.33874 | -1.60718 | 9721 ft | 209 kts | 294° |
| 2026-05-07 15:19 | 52.34539 | -1.62811 | 9436 ft | 206 kts | 294° |
| 2026-05-07 15:19 | 52.35195 | -1.64884 | 9160 ft | 205 kts | 294° |
| 2026-05-07 15:19 | 52.35833 | -1.66966 | 8886 ft | 203 kts | 291° |
| 2026-05-07 15:19 | 52.36398 | -1.69074 | 8621 ft | 202 kts | 291° |
| 2026-05-07 15:20 | 52.36976 | -1.71158 | 8356 ft | 200 kts | 291° |
| 2026-05-07 15:20 | 52.37547 | -1.73234 | 8090 ft | 200 kts | 291° |
| 2026-05-07 15:20 | 52.38114 | -1.75315 | 7826 ft | 200 kts | 291° |
| 2026-05-07 15:20 | 52.38677 | -1.77387 | 7565 ft | 199 kts | 291° |
| 2026-05-07 15:21 | 52.39238 | -1.79442 | 7300 ft | 196 kts | 291° |
| 2026-05-07 15:21 | 52.39794 | -1.81486 | 7034 ft | 197 kts | 291° |
| 2026-05-07 15:21 | 52.40348 | -1.83523 | 6782 ft | 195 kts | 291° |
| 2026-05-07 15:21 | 52.40897 | -1.85545 | 6525 ft | 194 kts | 291° |
| 2026-05-07 15:22 | 52.41445 | -1.87563 | 6236 ft | 194 kts | 291° |
| 2026-05-07 15:22 | 52.41991 | -1.89577 | 5982 ft | 194 kts | 291° |
| 2026-05-07 15:22 | 52.42538 | -1.91593 | 5724 ft | 194 kts | 291° |
| 2026-05-07 15:22 | 52.43082 | -1.93605 | 5465 ft | 193 kts | 291° |
| 2026-05-07 15:23 | 52.43626 | -1.95616 | 5215 ft | 194 kts | 291° |
| 2026-05-07 15:23 | 52.44173 | -1.97637 | 4958 ft | 194 kts | 291° |
| 2026-05-07 15:23 | 52.44719 | -1.99655 | 4703 ft | 194 kts | 291° |
| 2026-05-07 15:23 | 52.45262 | -2.01675 | 4443 ft | 193 kts | 291° |
| 2026-05-07 15:24 | 52.45805 | -2.03692 | 4184 ft | 193 kts | 291° |
| 2026-05-07 15:24 | 52.46345 | -2.05696 | 3929 ft | 191 kts | 291° |
| 2026-05-07 15:24 | 52.46883 | -2.07693 | 3674 ft | 192 kts | 291° |
| 2026-05-07 15:24 | 52.47422 | -2.09701 | 3424 ft | 192 kts | 291° |
| 2026-05-07 15:25 | 52.47956 | -2.11681 | 3179 ft | 193 kts | 291° |
| 2026-05-07 15:25 | 52.48494 | -2.13687 | 2917 ft | 191 kts | 291° |
| 2026-05-07 15:25 | 52.49025 | -2.15680 | 2664 ft | 191 kts | 290° |
| 2026-05-07 15:25 | 52.49560 | -2.17668 | 2413 ft | 191 kts | 291° |
| 2026-05-07 15:26 | 52.50094 | -2.19657 | 2156 ft | 189 kts | 290° |
| 2026-05-07 15:26 | 52.50596 | -2.21528 | 2029 ft | 177 kts | 289° |
| 2026-05-07 15:26 | 52.51069 | -2.23314 | 2002 ft | 172 kts | 291° |
| 2026-05-07 15:26 | 52.51541 | -2.25090 | 1990 ft | 168 kts | 290° |
| 2026-05-07 15:27 | 52.52005 | -2.26826 | 1992 ft | 158 kts | 290° |
| 2026-05-07 15:27 | 52.52139 | -2.28534 | 1985 ft | 151 kts | 250° |
| 2026-05-07 15:27 | 52.51484 | -2.29732 | 1993 ft | 144 kts | 199° |
| 2026-05-07 15:27 | 52.50517 | -2.29592 | 2004 ft | 145 kts | 155° |
| 2026-05-07 15:28 | 52.49760 | -2.28506 | 1987 ft | 151 kts | 120° |
| 2026-05-07 15:28 | 52.49725 | -2.26797 | 1994 ft | 157 kts | 71° |
| 2026-05-07 15:28 | 52.50457 | -2.25434 | 2001 ft | 165 kts | 41° |
| 2026-05-07 15:28 | 52.51338 | -2.24249 | 2005 ft | 157 kts | 43° |
| 2026-05-07 15:29 | 52.52183 | -2.23111 | 1916 ft | 162 kts | 41° |
| 2026-05-07 15:29 | 52.53187 | -2.22584 | 1664 ft | 154 kts | 354° |
| 2026-05-07 15:29 | 52.54197 | -2.23222 | 1585 ft | 163 kts | 328° |
| 2026-05-07 15:29 | 52.55014 | -2.24429 | 1488 ft | 152 kts | 297° |
| 2026-05-07 15:30 | 52.55300 | -2.25984 | 1448 ft | 135 kts | 261° |
| 2026-05-07 15:30 | 52.54885 | -2.27160 | 1575 ft | 117 kts | 208° |
| 2026-05-07 15:30 | 52.54153 | -2.27273 | 1635 ft | 100 kts | 171° |
| 2026-05-07 15:30 | 52.53481 | -2.27053 | 1096 ft | 94 kts | 167° |
| 2026-05-07 15:31 | 52.52884 | -2.26742 | 605 ft | 88 kts | 161° |
| 2026-05-07 15:31 | 52.52328 | -2.26393 | 358 ft | 84 kts | 156° |
| 2026-05-07 15:31 | 52.51836 | -2.26026 | 279 ft | 60 kts | 156° |
| 2026-05-07 15:31 | 52.51523 | -2.25797 | 283 ft | 42 kts | 158° |
| 2026-05-07 15:32 | 52.51311 | -2.25651 | 286 ft | 21 kts | 164° |
| 2026-05-07 15:32 | 52.51248 | -2.25743 | 283 ft | 8 kts | 290° |
| 2026-05-07 15:32 | 52.51250 | -2.25758 | 283 ft | 0 kts | 279° |
| 2026-05-07 15:33 | 52.51266 | -2.25835 | 282 ft | 16 kts | 296° |
| 2026-05-07 15:33 | 52.51325 | -2.25967 | 281 ft | 17 kts | 333° |
| 2026-05-07 15:33 | 52.51438 | -2.26054 | 280 ft | 15 kts | 307° |
| 2026-05-07 15:34 | 52.51495 | -2.26177 | 279 ft | 9 kts | 309° |
| 2026-05-07 15:34 | 52.51517 | -2.26261 | 278 ft | 1 kts | 278° |
| 2026-05-07 15:34 | 52.51527 | -2.26275 | 278 ft | 5 kts | 9° |
| 2026-05-07 15:34 | 52.51568 | -2.26247 | 278 ft | 9 kts | 311° |
| 2026-05-07 15:35 | 52.51565 | -2.26260 | 278 ft | 0 kts | 189° |